Time;durP1;ratioP1;P1;durP2;ratioP2;P2;SDS_P1;SDS_P2;PMS_P1;PMS_P2;Temp;Humidity;BMP_temperature;BMP_pressure;BME280_temperature;BME280_humidity;BME280_pressure;Samples;Min_cycle;Max_cycle;Signal;HPM_P1;HPM_P2
2022/11/06 00:01:14;;;;;;;8.52;3.60;;;;;;;10.19;74.83;101393.06;4785452;29;20027;-88
2022/11/06 00:03:40;;;;;;;8.00;3.83;;;;;;;10.20;74.53;101395.63;4795724;29;20556;-88
2022/11/06 00:08:57;;;;;;;14.52;4.32;;;;;;;10.22;74.01;101396.47;4775162;29;20108;-88
2022/11/06 00:11:22;;;;;;;6.45;3.60;;;;;;;10.13;74.13;101388.81;4788927;29;20023;-89
2022/11/06 00:13:48;;;;;;;8.98;3.40;;;;;;;10.05;74.06;101376.75;4794899;29;20507;-88
2022/11/06 00:16:14;;;;;;;5.45;3.20;;;;;;;10.09;74.33;101381.91;4784406;29;20031;-88
2022/11/06 00:18:40;;;;;;;10.35;3.85;;;;;;;10.03;74.82;101395.28;4797250;29;20057;-88
2022/11/06 00:21:14;;;;;;;7.00;3.60;;;;;;;10.03;74.36;101386.50;4789874;29;20291;-88
2022/11/06 00:23:40;;;;;;;10.50;3.72;;;;;;;9.85;74.94;101374.69;4778202;30;20554;-88
2022/11/06 00:26:11;;;;;;;4.63;3.42;;;;;;;9.84;75.24;101386.13;4767265;30;20042;-88
2022/11/06 00:28:37;;;;;;;8.00;4.10;;;;;;;9.77;75.00;101371.41;4787785;30;20122;-88
2022/11/06 00:31:15;;;;;;;6.65;3.70;;;;;;;9.84;75.32;101386.13;4766282;30;20119;-88
2022/11/06 00:33:41;;;;;;;4.50;3.03;;;;;;;9.71;75.58;101368.03;4759662;30;20374;-89
2022/11/06 00:36:09;;;;;;;8.98;3.45;;;;;;;9.72;75.47;101368.88;4781650;29;20061;-88
2022/11/06 00:38:34;;;;;;;8.15;3.65;;;;;;;9.73;75.64;101364.47;4764181;29;20397;-88
2022/11/06 00:41:08;;;;;;;11.10;3.38;;;;;;;9.80;75.65;101366.03;4770770;30;20031;-88
2022/11/06 00:43:34;;;;;;;8.20;3.38;;;;;;;9.71;75.05;101346.91;4776192;30;20110;-87
2022/11/06 00:46:05;;;;;;;7.40;3.33;;;;;;;9.73;75.10;101345.97;4787582;29;20035;-88
2022/11/06 00:48:31;;;;;;;6.90;3.90;;;;;;;9.74;75.29;101347.69;4759817;30;20135;-88
2022/11/06 00:51:09;;;;;;;9.00;3.80;;;;;;;9.70;75.87;101360.16;4771555;29;20118;-88
2022/11/06 00:53:35;;;;;;;14.38;3.83;;;;;;;9.70;75.28;101358.38;4756197;30;20307;-88
2022/11/06 00:56:08;;;;;;;7.80;3.33;;;;;;;9.76;75.65;101365.25;4779917;29;20541;-89
2022/11/06 00:58:34;;;;;;;12.35;3.95;;;;;;;9.62;75.63;101351.56;4771330;30;20615;-88
2022/11/06 01:01:21;;;;;;;5.72;2.47;;;;;;;9.75;75.28;101352.97;4778752;29;20100;-89
2022/11/06 01:03:55;;;;;;;9.40;3.17;;;;;;;9.66;75.42;101350.59;4758941;30;20044;-88
2022/11/06 01:06:23;;;;;;;7.00;3.38;;;;;;;9.61;75.68;101347.22;4763780;30;20063;-88
2022/11/06 01:08:50;;;;;;;5.22;3.13;;;;;;;9.68;75.30;101362.81;4777792;29;20027;-88
2022/11/06 01:11:40;;;;;;;10.77;3.38;;;;;;;9.66;75.94;101354.09;4786763;29;20070;-88
2022/11/06 01:14:06;;;;;;;7.10;2.78;;;;;;;9.62;75.41;101349.78;4756674;30;20036;-88
2022/11/06 01:16:32;;;;;;;12.07;3.42;;;;;;;9.57;75.78;101358.75;4784404;30;20095;-88
2022/11/06 01:18:58;;;;;;;8.43;3.70;;;;;;;9.57;75.98;101364.03;4776066;30;20031;-88
2022/11/06 01:21:26;;;;;;;5.68;3.30;;;;;;;9.48;76.19;101351.09;4795078;29;20461;-88
2022/11/06 01:23:57;;;;;;;7.07;3.05;;;;;;;9.47;76.33;101337.03;4793712;29;20027;-89
2022/11/06 01:26:23;;;;;;;10.82;2.97;;;;;;;9.48;75.81;101349.31;4798209;29;20030;-88
2022/11/06 01:28:49;;;;;;;8.15;2.83;;;;;;;9.49;75.92;101336.97;4792395;29;20504;-88
2022/11/06 01:31:18;;;;;;;7.18;2.90;;;;;;;9.57;76.31;101346.41;4781259;29;20065;-88
2022/11/06 01:33:43;;;;;;;5.35;3.00;;;;;;;9.43;75.90;101320.41;4804306;29;20046;-89
2022/11/06 01:36:11;;;;;;;7.13;2.78;;;;;;;9.45;76.40;101315.06;4796830;29;20088;-88
2022/11/06 01:38:40;;;;;;;12.57;3.00;;;;;;;9.60;76.10;101338.41;4764172;29;20047;-88
2022/11/06 01:41:06;;;;;;;10.57;2.70;;;;;;;9.68;76.22;101332.91;4799155;29;20050;-88
2022/11/06 01:43:53;;;;;;;8.65;3.22;;;;;;;9.76;75.86;101320.38;4792361;29;20043;-89
2022/11/06 01:46:20;;;;;;;5.05;3.20;;;;;;;9.64;75.40;101305.72;4787605;29;20070;-88
2022/11/06 01:48:51;;;;;;;8.70;2.63;;;;;;;9.69;76.03;101317.00;4788504;29;20092;-88
2022/11/06 01:51:17;;;;;;;6.28;2.35;;;;;;;9.66;75.19;101298.66;4799022;29;20043;-89
2022/11/06 01:53:43;;;;;;;4.82;2.35;;;;;;;9.82;75.22;101314.88;4791799;29;20511;-88
2022/11/06 01:56:11;;;;;;;8.15;3.28;;;;;;;9.89;75.28;101318.22;4803435;29;20031;-88
2022/11/06 01:58:40;;;;;;;7.00;2.85;;;;;;;9.95;74.92;101334.75;4783980;30;20416;-89
2022/11/06 02:01:06;;;;;;;5.20;2.47;;;;;;;9.92;74.77;101308.41;4795676;29;20651;-88
2022/11/06 02:03:32;;;;;;;8.82;3.15;;;;;;;9.94;74.79;101308.41;4790866;29;20114;-88
2022/11/06 02:05:58;;;;;;;6.18;2.50;;;;;;;9.96;74.88;101312.69;4778684;30;20531;-89
2022/11/06 02:08:24;;;;;;;6.65;2.55;;;;;;;10.01;74.69;101312.56;4797644;29;20118;-88
2022/11/06 02:10:51;;;;;;;8.93;2.75;;;;;;;10.02;74.53;101306.38;4785667;29;20065;-89
2022/11/06 02:13:31;;;;;;;7.82;2.60;;;;;;;10.12;74.47;101315.75;4798003;29;20042;-89
2022/11/06 02:16:08;;;;;;;8.32;2.65;;;;;;;10.11;74.62;101307.88;4777454;29;20045;-88
2022/11/06 02:19:05;;;;;;;5.72;2.53;;;;;;;10.11;74.27;101302.56;4782726;29;20038;-89
2022/11/06 02:21:59;;;;;;;4.93;2.20;;;;;;;10.21;74.02;101304.91;4775328;29;20054;-88
2022/11/06 02:24:58;;;;;;;6.82;2.90;;;;;;;10.23;73.92;101295.16;4791703;29;20110;-88
2022/11/06 02:27:25;;;;;;;3.38;1.90;;;;;;;10.22;74.58;101301.34;4775072;29;20070;-89
2022/11/06 02:30:10;;;;;;;6.13;2.58;;;;;;;10.22;73.48;101293.44;4799091;29;20051;-88
2022/11/06 02:32:38;;;;;;;7.03;2.72;;;;;;;10.17;74.32;101294.50;4800992;29;20517;-89
2022/11/06 02:35:31;;;;;;;9.90;2.47;;;;;;;10.04;74.14;101277.28;4794268;29;20091;-89
2022/11/06 02:38:05;;;;;;;6.43;2.40;;;;;;;10.10;74.03;101279.72;4751203;30;20078;-88
2022/11/06 02:40:35;;;;;;;9.75;2.47;;;;;;;10.12;74.11;101289.34;4773437;29;20023;-88
2022/11/06 02:43:05;;;;;;;5.95;2.58;;;;;;;10.00;74.13;101267.72;4796291;29;20043;-89
2022/11/06 02:45:37;;;;;;;7.50;2.72;;;;;;;10.02;74.80;101273.81;4784560;29;20520;-88
2022/11/06 02:48:05;;;;;;;;;;;;;;;10.15;74.29;101283.94;4793559;29;20403;-88
2022/11/06 02:50:34;;;;;;;3.67;2.17;;;;;;;10.05;74.68;101271.06;4799057;29;19913;-88
2022/11/06 02:53:05;;;;;;;9.98;2.55;;;;;;;10.01;74.69;101262.38;4792423;29;20019;-88
2022/11/06 02:55:36;;;;;;;6.55;2.65;;;;;;;10.10;74.66;101283.22;4790344;29;20031;-88
2022/11/06 02:58:22;;;;;;;5.20;2.25;;;;;;;10.07;74.71;101274.53;4791067;29;20075;-89
2022/11/06 03:00:55;;;;;;;5.90;2.22;;;;;;;10.12;74.96;101280.56;4785400;29;20114;-88
2022/11/06 03:03:25;;;;;;;8.57;2.35;;;;;;;10.13;74.60;101269.94;4803433;29;20069;-88
2022/11/06 03:05:57;;;;;;;3.58;1.85;;;;;;;10.10;74.57;101271.81;4798717;29;20034;-88
2022/11/06 03:08:25;;;;;;;;;;;;;;;10.28;74.20;101287.09;4791779;29;20172;-88
2022/11/06 03:11:23;;;;;;;7.78;2.60;;;;;;;10.28;73.97;101292.38;4791572;29;20183;-88
2022/11/06 03:14:08;;;;;;;5.78;2.22;;;;;;;10.13;74.17;101269.06;4760665;30;20063;-88
2022/11/06 03:16:49;;;;;;;10.48;3.08;;;;;;;10.28;74.68;101294.16;4778899;29;20031;-88
2022/11/06 03:19:23;;;;;;;7.15;2.40;;;;;;;10.34;74.28;101307.19;4790637;29;20039;-88
2022/11/06 03:22:15;;;;;;;8.68;3.30;;;;;;;10.35;73.95;101278.09;4802583;29;20081;-88
2022/11/06 03:25:17;;;;;;;5.00;2.35;;;;;;;10.39;74.08;101284.97;4764653;30;20067;-88
2022/11/06 03:28:02;;;;;;;6.75;2.50;;;;;;;10.35;73.98;101278.09;4797331;29;20096;-88
2022/11/06 03:30:28;;;;;;;6.00;2.53;;;;;;;10.28;74.01;101260.69;4798012;29;20031;-89
2022/11/06 03:33:19;;;;;;;8.20;2.00;;;;;;;10.23;74.51;101260.78;4785101;29;20106;-89
2022/11/06 03:35:50;;;;;;;8.38;2.53;;;;;;;10.21;74.36;101265.28;4797312;29;20050;-88
2022/11/06 03:38:25;;;;;;;10.82;2.55;;;;;;;10.14;74.87;101245.22;4802832;29;20031;-89
2022/11/06 03:41:01;;;;;;;8.60;2.65;;;;;;;9.89;75.15;101225.81;4785703;29;20031;-88
2022/11/06 03:43:31;;;;;;;5.88;2.03;;;;;;;10.04;75.21;101253.50;4790682;29;20039;-88
2022/11/06 03:45:58;;;;;;;6.15;2.22;;;;;;;9.96;75.31;101229.97;4779479;30;20481;-87
2022/11/06 03:48:39;;;;;;;6.32;2.33;;;;;;;10.02;75.22;101227.13;4792700;29;20068;-88
2022/11/06 03:51:11;;;;;;;7.25;2.95;;;;;;;10.03;74.98;101231.50;4780722;30;20139;-88
2022/11/06 03:53:47;;;;;;;8.40;2.47;;;;;;;10.04;75.39;101217.38;4802206;29;20091;-89
2022/11/06 03:56:22;;;;;;;5.63;2.28;;;;;;;10.12;74.73;101212.72;4802685;29;20031;-88
2022/11/06 03:58:49;;;;;;;8.80;2.70;;;;;;;10.20;75.39;101228.31;4800035;29;20088;-88
2022/11/06 04:01:20;;;;;;;4.57;1.92;;;;;;;10.09;75.46;101202.25;4799651;29;20069;-88
2022/11/06 04:04:01;;;;;;;6.90;2.20;;;;;;;10.24;74.89;101219.41;4776690;29;20027;-88
2022/11/06 04:06:43;;;;;;;9.25;2.90;;;;;;;10.31;74.88;101214.81;4783144;29;20495;-88
2022/11/06 04:15:01;;;;;;;4.45;2.60;;;;;;;10.34;74.80;101199.69;4720119;30;20044;-88
2022/11/06 04:17:28;;;;;;;5.80;2.28;;;;;;;10.33;74.87;101205.03;4758668;30;20046;-88
2022/11/06 04:19:57;;;;;;;5.70;2.08;;;;;;;10.20;75.25;101186.03;4785824;29;20404;-88
2022/11/06 04:22:47;;;;;;;5.28;2.28;;;;;;;10.35;75.00;101201.44;4805997;29;20026;-88
2022/11/06 04:28:27;;;;;;;9.70;2.50;;;;;;;10.26;75.68;101187.63;4782547;29;20078;-88
2022/11/06 04:31:10;;;;;;;5.47;2.03;;;;;;;10.30;75.33;101176.06;4781016;29;20076;-89
2022/11/06 04:33:47;;;;;;;7.30;2.45;;;;;;;10.23;75.82;101185.94;4779126;29;20622;-88
2022/11/06 04:36:38;;;;;;;7.90;2.92;;;;;;;10.24;75.63;101174.50;4793125;29;20039;-88
2022/11/06 04:39:36;;;;;;;13.37;2.27;;;;;;;10.25;75.97;101184.13;4765377;29;20050;-89
2022/11/06 04:42:13;;;;;;;6.53;2.20;;;;;;;10.14;75.83;101167.75;4795842;29;20280;-88
2022/11/06 04:44:48;;;;;;;3.35;2.60;;;;;;;10.07;76.26;101168.84;4788619;29;20031;-88
2022/11/06 04:47:18;;;;;;;5.97;2.22;;;;;;;10.07;76.27;101158.28;4802364;29;20688;-88
2022/11/06 04:49:44;;;;;;;3.47;2.13;;;;;;;10.07;76.29;101163.56;4782895;29;20034;-89
2022/11/06 04:52:18;;;;;;;5.75;2.55;;;;;;;10.04;76.54;101167.19;4800760;29;20102;-89
2022/11/06 04:54:45;;;;;;;11.90;3.00;;;;;;;9.98;76.65;101159.47;4799157;29;20045;-89
2022/11/06 04:57:11;;;;;;;5.25;2.03;;;;;;;9.95;76.68;101162.22;4781548;29;20034;-88
2022/11/06 04:59:36;;;;;;;4.65;2.35;;;;;;;9.92;76.91;101170.22;4793099;29;20043;-88
2022/11/06 05:02:03;;;;;;;8.15;2.80;;;;;;;9.76;77.02;101147.88;4799893;29;20030;-88
2022/11/06 05:04:28;;;;;;;6.43;2.30;;;;;;;9.81;77.23;101161.78;4771001;30;20047;-89
2022/11/06 05:06:53;;;;;;;8.70;2.90;;;;;;;9.81;77.32;101152.09;4803829;29;20110;-88
2022/11/06 05:09:19;;;;;;;7.10;2.33;;;;;;;9.79;76.92;101146.00;4777804;29;20076;-89
2022/11/06 05:11:44;;;;;;;4.95;2.40;;;;;;;9.88;77.38;101163.31;4787058;29;20038;-88
2022/11/06 05:14:10;;;;;;;7.65;2.55;;;;;;;9.84;77.50;101156.41;4786645;29;20047;-90
2022/11/06 05:16:35;;;;;;;7.38;2.60;;;;;;;9.76;77.60;101142.59;4792858;29;20039;-88
2022/11/06 05:19:01;;;;;;;5.45;2.17;;;;;;;9.71;77.54;101135.69;4787333;29;20035;-88
2022/11/06 05:24:10;;;;;;;8.30;2.50;;;;;;;9.67;77.50;101125.25;4780812;30;20120;-89
2022/11/06 05:26:36;;;;;;;8.38;2.53;;;;;;;9.74;78.27;101136.47;4760299;30;20480;-89
2022/11/06 05:29:01;;;;;;;7.30;2.47;;;;;;;9.76;77.85;101139.97;4774156;29;20036;-88
2022/11/06 05:31:26;;;;;;;5.90;2.28;;;;;;;9.73;77.73;101137.41;4780040;30;20464;-89
2022/11/06 05:33:52;;;;;;;8.60;2.88;;;;;;;9.78;78.19;101153.97;4753189;30;20030;-88
2022/11/06 05:36:17;;;;;;;8.30;2.45;;;;;;;9.71;78.33;101135.69;4769365;29;20043;-89
2022/11/06 05:38:43;;;;;;;6.68;2.30;;;;;;;9.77;78.29;101136.41;4761010;30;20032;-88
2022/11/06 05:41:08;;;;;;;6.07;2.38;;;;;;;9.76;77.74;101134.69;4763444;30;20134;-89
2022/11/06 05:43:33;;;;;;;7.70;2.45;;;;;;;9.74;78.17;101136.47;4758463;30;20059;-89
2022/11/06 05:45:59;;;;;;;4.45;2.38;;;;;;;9.69;78.30;101131.34;4786316;29;20504;-89
2022/11/06 05:48:25;;;;;;;6.03;2.67;;;;;;;9.59;78.41;101119.34;4785256;29;20066;-88
2022/11/06 05:50:51;;;;;;;6.70;2.75;;;;;;;9.65;78.46;101127.06;4771267;30;20034;-88
2022/11/06 05:53:16;;;;;;;5.68;2.50;;;;;;;9.67;78.42;101107.66;4764535;29;20027;-89
2022/11/06 05:55:44;;;;;;;6.93;2.50;;;;;;;9.75;77.59;101111.84;4763558;30;20031;-88
2022/11/06 05:58:09;;;;;;;6.38;2.30;;;;;;;9.73;78.13;101106.56;4769439;29;20031;-88
2022/11/06 06:00:35;;;;;;;7.13;2.70;;;;;;;9.82;78.35;101118.63;4759435;30;20400;-88
2022/11/06 06:03:01;;;;;;;6.97;2.28;;;;;;;9.79;78.01;101111.69;4763082;30;20053;-89
2022/11/06 06:05:26;;;;;;;3.33;2.15;;;;;;;9.80;77.78;101109.91;4769832;30;20111;-89
2022/11/06 06:07:52;;;;;;;5.75;2.42;;;;;;;9.86;77.76;101112.34;4785379;30;20578;-88
2022/11/06 06:10:17;;;;;;;6.05;2.00;;;;;;;9.82;77.70;101108.91;4774168;30;20281;-88
2022/11/06 06:12:42;;;;;;;6.22;2.28;;;;;;;9.78;77.92;101106.44;4768596;30;20023;-89
2022/11/06 06:15:08;;;;;;;10.52;3.88;;;;;;;9.81;77.91;101107.19;4774521;29;20092;-89
2022/11/06 06:17:33;;;;;;;4.13;2.10;;;;;;;9.80;77.67;101102.84;4769751;30;20031;-88
2022/11/06 06:19:58;;;;;;;3.72;2.28;;;;;;;9.83;77.99;101086.00;4767464;30;20515;-88
2022/11/06 06:22:24;;;;;;;4.30;2.22;;;;;;;9.95;77.70;101094.41;4774767;29;20027;-88
2022/11/06 06:24:49;;;;;;;6.60;1.98;;;;;;;9.86;77.48;101089.44;4780311;29;20069;-88
2022/11/06 06:27:14;;;;;;;4.50;2.40;;;;;;;9.94;77.42;101089.19;4778765;29;20042;-88
2022/11/06 06:29:40;;;;;;;7.70;2.20;;;;;;;9.99;77.28;101102.22;4773241;30;20474;-89
2022/11/06 06:32:05;;;;;;;6.10;2.28;;;;;;;9.91;77.15;101090.13;4774757;30;20031;-88
2022/11/06 06:34:30;;;;;;;7.03;2.22;;;;;;;9.95;77.25;101097.03;4768729;30;20035;-88
2022/11/06 06:36:56;;;;;;;4.78;2.03;;;;;;;9.94;77.30;101094.47;4782074;30;20118;-88
2022/11/06 06:39:21;;;;;;;4.05;2.10;;;;;;;9.85;77.30;101079.78;4757545;30;20027;-89
2022/11/06 06:41:47;;;;;;;6.38;2.63;;;;;;;9.91;76.99;101089.28;4784754;29;20058;-89
2022/11/06 06:44:13;;;;;;;6.07;2.47;;;;;;;10.06;77.22;101109.03;4763454;29;20039;-88
2022/11/06 06:46:39;;;;;;;4.38;1.92;;;;;;;9.99;77.06;101094.31;4778964;30;20032;-88
2022/11/06 06:49:04;;;;;;;8.40;2.38;;;;;;;10.05;76.71;101113.44;4764204;30;20130;-88
2022/11/06 06:51:29;;;;;;;6.43;2.30;;;;;;;10.04;76.58;101100.28;4785069;29;20031;-89
2022/11/06 06:53:55;;;;;;;6.53;2.28;;;;;;;10.06;76.74;101107.25;4763307;30;20126;-88
2022/11/06 06:56:20;;;;;;;11.32;2.15;;;;;;;9.92;77.00;101093.63;4778428;30;20130;-88
2022/11/06 06:58:45;;;;;;;6.68;2.40;;;;;;;10.01;77.62;101103.03;4769059;30;20484;-88
2022/11/06 07:01:11;;;;;;;5.32;2.60;;;;;;;9.99;76.79;101092.53;4784027;29;20468;-89
2022/11/06 07:03:37;;;;;;;7.38;2.22;;;;;;;10.06;77.34;101106.38;4763739;30;20096;-88
2022/11/06 07:06:02;;;;;;;5.53;1.90;;;;;;;10.11;77.17;101096.50;4777976;30;20092;-88
2022/11/06 07:08:28;;;;;;;4.22;2.25;;;;;;;10.14;77.26;101107.00;4784961;29;20492;-89
2022/11/06 07:11:01;;;;;;;6.07;2.83;;;;;;;10.17;76.54;101091.91;4784499;29;20063;-88
2022/11/06 07:13:27;;;;;;;5.38;2.58;;;;;;;10.33;76.32;101096.69;4779311;30;20035;-88
2022/11/06 07:15:53;;;;;;;9.13;2.28;;;;;;;10.52;75.74;101095.09;4778466;29;20404;-89
2022/11/06 07:18:18;;;;;;;7.82;2.10;;;;;;;10.53;75.41;101095.97;4768273;30;20572;-89
2022/11/06 07:20:43;;;;;;;6.70;2.25;;;;;;;10.62;74.91;101082.41;4789683;29;20444;-88
2022/11/06 07:23:08;;;;;;;5.20;2.05;;;;;;;10.63;74.95;101078.84;4797772;29;20072;-88
2022/11/06 07:25:34;;;;;;;9.52;2.10;;;;;;;10.76;74.82;101095.13;4795476;29;20042;-88
2022/11/06 07:28:04;;;;;;;8.63;1.80;;;;;;;10.77;74.16;101083.63;4802648;29;20087;-89
2022/11/06 07:30:30;;;;;;;3.60;2.03;;;;;;;10.91;74.42;101098.09;4798991;29;20399;-88
2022/11/06 07:32:55;;;;;;;11.15;2.40;;;;;;;10.77;74.17;101065.13;4774774;29;20469;-88
2022/11/06 07:35:21;;;;;;;5.53;2.15;;;;;;;10.91;74.21;101091.91;4775551;30;20034;-89
2022/11/06 07:37:46;;;;;;;6.07;2.30;;;;;;;10.95;74.29;101075.00;4769821;29;20020;-88
2022/11/06 07:40:13;;;;;;;7.32;2.05;;;;;;;11.04;74.13;101082.59;4784075;29;20093;-89
2022/11/06 07:42:39;;;;;;;4.00;2.30;;;;;;;11.05;73.38;101075.50;4780261;30;20108;-89
2022/11/06 07:45:05;;;;;;;11.23;1.90;;;;;;;11.17;73.03;101089.16;4796775;29;20035;-88
2022/11/06 07:47:30;;;;;;;6.50;1.75;;;;;;;11.19;73.60;101086.44;4774881;29;20463;-88
2022/11/06 07:49:55;;;;;;;2.78;1.70;;;;;;;11.45;72.81;101091.56;4788092;29;20090;-88
2022/11/06 07:52:21;;;;;;;4.90;1.80;;;;;;;11.29;73.50;101071.94;4803048;29;20116;-88
2022/11/06 07:54:47;;;;;;;6.05;1.73;;;;;;;11.45;72.31;101090.72;4803047;29;20083;-88
2022/11/06 07:57:12;;;;;;;4.70;1.83;;;;;;;11.54;72.09;101077.09;4773365;29;20065;-89
2022/11/06 07:59:37;;;;;;;3.40;1.85;;;;;;;11.44;72.08;101059.88;4796602;29;20027;-89
2022/11/06 08:02:03;;;;;;;5.13;2.05;;;;;;;11.36;72.09;101046.94;4801784;29;20035;-88
2022/11/06 08:04:28;;;;;;;6.28;1.90;;;;;;;11.37;72.49;101058.38;4796137;29;20039;-88
2022/11/06 08:06:53;;;;;;;5.25;1.83;;;;;;;11.32;72.81;101058.56;4801691;29;20063;-89
2022/11/06 08:09:18;;;;;;;8.98;1.98;;;;;;;11.43;72.95;101079.34;4802800;29;20027;-89
2022/11/06 08:11:44;;;;;;;5.38;2.00;;;;;;;11.26;72.62;101065.91;4774270;29;20035;-89
2022/11/06 08:14:10;;;;;;;6.93;1.85;;;;;;;11.35;72.74;101069.03;4791525;29;20113;-88
2022/11/06 08:16:35;;;;;;;5.47;2.20;;;;;;;11.32;72.67;101069.16;4780020;29;20055;-88
2022/11/06 08:19:00;;;;;;;3.55;1.60;;;;;;;11.31;73.07;101056.84;4779562;29;20291;-89
2022/11/06 08:21:26;;;;;;;7.43;1.85;;;;;;;11.32;73.63;101055.91;4802154;29;20055;-88
2022/11/06 08:23:51;;;;;;;4.63;1.67;;;;;;;11.39;73.26;101062.72;4791826;29;20043;-88
2022/11/06 08:26:17;;;;;;;5.15;1.85;;;;;;;11.37;73.09;101046.00;4801235;29;20034;-89
2022/11/06 08:28:42;;;;;;;5.93;1.67;;;;;;;11.47;72.80;101033.25;4786847;29;20045;-89
2022/11/06 08:31:08;;;;;;;4.90;1.70;;;;;;;11.59;72.13;101030.13;4790445;29;20473;-89
2022/11/06 08:33:35;;;;;;;4.28;1.95;;;;;;;11.68;71.72;101034.16;4792180;29;20039;-90
2022/11/06 08:36:05;;;;;;;4.63;2.13;;;;;;;11.66;71.74;101034.25;4799190;29;20031;-88
2022/11/06 08:38:31;;;;;;;5.63;1.88;;;;;;;11.53;71.25;101024.22;4776515;29;20085;-89
2022/11/06 08:40:56;;;;;;;6.22;1.95;;;;;;;11.75;71.48;101041.81;4797670;29;20663;-88
2022/11/06 08:43:25;;;;;;;4.90;2.13;;;;;;;11.78;71.22;101037.28;4786645;29;20493;-89
2022/11/06 08:45:51;;;;;;;3.05;1.73;;;;;;;11.90;71.28;101039.47;4782258;29;20030;-88
2022/11/06 08:48:17;;;;;;;5.35;2.05;;;;;;;11.95;70.70;101024.25;4776834;29;20027;-88
2022/11/06 08:50:42;;;;;;;6.43;2.20;;;;;;;12.03;70.24;101026.53;4777641;29;20385;-88
2022/11/06 08:53:07;;;;;;;4.00;1.60;;;;;;;12.03;70.50;101014.19;4793702;29;20031;-89
2022/11/06 08:55:35;;;;;;;5.70;1.90;;;;;;;12.22;70.06;101027.50;4781687;29;20034;-89
2022/11/06 08:58:00;;;;;;;6.25;1.80;;;;;;;12.13;69.96;101002.25;4777258;29;20084;-90
2022/11/06 09:00:27;;;;;;;4.43;1.80;;;;;;;12.39;69.59;101027.56;4803909;29;20034;-89
2022/11/06 09:03:00;;;;;;;6.10;1.85;;;;;;;12.42;69.50;101008.03;4804962;29;20097;-88
2022/11/06 09:05:26;;;;;;;6.40;1.58;;;;;;;12.41;68.42;100993.91;4766858;29;20043;-88
2022/11/06 09:07:52;;;;;;;5.22;1.50;;;;;;;12.56;68.46;101005.63;4786431;29;20059;-89
2022/11/06 09:10:17;;;;;;;4.43;1.60;;;;;;;12.74;68.27;101011.88;4793686;29;20054;-89
2022/11/06 09:12:42;;;;;;;5.38;1.70;;;;;;;12.98;67.25;100997.44;4804082;29;20042;-88
2022/11/06 09:15:08;;;;;;;6.85;1.50;;;;;;;13.10;66.97;100997.78;4777733;29;20121;-89
2022/11/06 09:17:33;;;;;;;4.07;1.70;;;;;;;13.26;67.64;100973.09;4800786;29;20039;-89
2022/11/06 09:19:59;;;;;;;3.28;1.42;;;;;;;13.62;65.21;100987.31;4785867;29;20022;-88
2022/11/06 09:22:24;;;;;;;2.55;1.20;;;;;;;13.44;64.66;100970.50;4788857;29;20031;-88
2022/11/06 09:24:49;;;;;;;6.68;1.50;;;;;;;13.59;64.87;100979.47;4787636;29;20027;-88
2022/11/06 09:27:14;;;;;;;4.50;1.42;;;;;;;13.76;64.35;100951.13;4793197;29;20046;-88
2022/11/06 09:29:42;;;;;;;3.83;1.60;;;;;;;14.21;63.39;100975.34;4776675;29;20027;-87
2022/11/06 09:32:08;;;;;;;3.75;1.40;;;;;;;14.92;61.15;100964.41;4797707;29;20036;-87
2022/11/06 09:34:33;;;;;;;3.22;1.30;;;;;;;16.45;56.06;100961.50;4798657;29;20044;-87
2022/11/06 09:37:01;;;;;;;6.70;1.48;;;;;;;16.81;55.15;100962.84;4795130;29;20027;-87
2022/11/06 09:39:27;;;;;;;2.90;1.23;;;;;;;16.33;56.95;100948.94;4782698;29;20053;-88
2022/11/06 09:41:59;;;;;;;2.60;1.42;;;;;;;15.76;57.12;100959.53;4782667;29;20488;-88
2022/11/06 09:44:36;;;;;;;5.65;1.50;;;;;;;15.00;59.18;100962.16;4787155;29;20039;-88
2022/11/06 09:47:11;;;;;;;3.80;1.50;;;;;;;14.64;60.77;100950.00;4786330;29;20495;-88
2022/11/06 09:49:56;;;;;;;4.70;1.40;;;;;;;15.67;58.40;100960.13;4787228;29;20027;-88
2022/11/06 09:52:48;;;;;;;5.38;1.83;;;;;;;17.37;53.42;100954.75;4781223;29;20034;-88
2022/11/06 09:55:21;;;;;;;2.85;1.15;;;;;;;17.83;53.33;100955.19;4792341;29;20373;-87
2022/11/06 09:57:50;;;;;;;4.18;1.27;;;;;;;18.01;50.78;100951.25;4803181;29;20030;-88
2022/11/06 10:00:16;;;;;;;8.32;1.88;;;;;;;16.38;55.00;100956.66;4776276;29;20035;-87
2022/11/06 10:02:46;;;;;;;3.85;1.65;;;;;;;15.30;57.84;100947.13;4775933;29;20035;-89
2022/11/06 10:05:31;;;;;;;4.82;1.60;;;;;;;14.80;59.39;100953.50;4796512;29;20419;-88
2022/11/06 10:08:00;;;;;;;5.90;1.42;;;;;;;14.41;60.23;100948.56;4799891;29;20034;-87
2022/11/06 10:10:55;;;;;;;4.38;1.60;;;;;;;14.98;60.75;100958.75;4797370;29;20053;-88
2022/11/06 10:13:43;;;;;;;5.25;1.42;;;;;;;15.64;59.02;100942.47;4756644;29;20604;-88
2022/11/06 10:16:13;;;;;;;2.60;1.30;;;;;;;15.93;57.45;100948.72;4792031;29;20031;-88
2022/11/06 10:19:17;;;;;;;5.28;1.48;;;;;;;17.29;53.40;100939.19;4798361;29;20054;-88
2022/11/06 10:22:05;;;;;;;6.70;1.80;;;;;;;16.45;55.65;100933.97;4784781;29;20538;-88
2022/11/06 10:24:45;;;;;;;3.75;1.35;;;;;;;15.75;57.91;100934.69;4758043;30;20039;-88
2022/11/06 10:27:22;;;;;;;2.83;1.30;;;;;;;14.95;59.26;100911.00;4785722;29;20035;-89
2022/11/06 10:30:07;;;;;;;6.03;1.52;;;;;;;14.44;60.13;100916.44;4780680;30;20084;-88
2022/11/06 10:33:03;;;;;;;2.63;1.20;;;;;;;14.14;61.62;100928.78;4782807;30;20024;-88
2022/11/06 10:35:56;;;;;;;3.75;1.50;;;;;;;14.00;61.57;100926.84;4769252;30;20054;-88
2022/11/06 10:38:26;;;;;;;3.92;1.52;;;;;;;13.93;61.89;100914.81;4756353;30;20029;-87
2022/11/06 10:40:53;;;;;;;6.82;1.90;;;;;;;13.74;62.85;100914.91;4778013;29;20040;-88
2022/11/06 10:43:33;;;;;;;3.10;1.40;;;;;;;13.91;61.57;100917.56;4772166;30;20028;-88
2022/11/06 10:46:07;;;;;;;4.35;1.60;;;;;;;14.08;62.38;100921.97;4774780;30;20042;-88
2022/11/06 10:48:39;;;;;;;4.95;1.45;;;;;;;14.71;61.49;100892.81;4778692;30;20110;-88
2022/11/06 10:51:31;;;;;;;7.43;1.75;;;;;;;15.38;58.96;100887.19;4763102;29;20035;-88
2022/11/06 10:54:43;;;;;;;4.07;1.58;;;;;;;14.88;58.56;100886.53;4761901;30;20506;-87
2022/11/06 10:57:27;;;;;;;9.38;2.15;;;;;;;14.72;59.92;100878.56;4767756;29;20088;-89
2022/11/06 10:59:53;;;;;;;4.13;1.58;;;;;;;15.08;59.00;100864.06;4785104;30;20547;-88
2022/11/06 11:02:30;;;;;;;6.30;1.70;;;;;;;16.05;55.74;100875.13;4785784;30;20027;-88
2022/11/06 11:04:55;;;;;;;5.88;1.92;;;;;;;17.04;53.39;100860.69;4773602;30;20046;-88
2022/11/06 11:07:21;;;;;;;4.70;1.15;;;;;;;17.49;52.04;100863.91;4779990;30;20051;-88
2022/11/06 11:09:49;;;;;;;5.05;1.67;;;;;;;16.31;52.94;100852.13;4784359;29;20366;-88
2022/11/06 11:12:22;;;;;;;4.97;1.35;;;;;;;15.90;55.32;100860.06;4785663;29;20058;-89
2022/11/06 11:15:05;;;;;;;4.60;1.23;;;;;;;16.14;55.85;100855.88;4769727;30;20547;-88
2022/11/06 11:17:30;;;;;;;5.78;1.40;;;;;;;15.76;55.36;100839.56;4779243;29;20027;-89
2022/11/06 11:19:56;;;;;;;3.22;1.50;;;;;;;14.97;56.42;100840.75;4782767;30;20028;-87
2022/11/06 11:22:23;;;;;;;5.35;1.63;;;;;;;14.66;57.25;100857.63;4785557;29;20034;-88
2022/11/06 11:25:03;;;;;;;7.28;1.40;;;;;;;14.52;58.95;100846.91;4757681;30;20396;-87
2022/11/06 11:27:31;;;;;;;4.38;1.33;;;;;;;14.34;57.89;100850.56;4758964;30;20043;-88
2022/11/06 11:29:57;;;;;;;5.57;1.40;;;;;;;14.09;59.39;100825.34;4764562;30;20034;-89
2022/11/06 11:32:23;;;;;;;4.28;1.35;;;;;;;14.03;59.56;100820.34;4769110;29;20032;-89
2022/11/06 11:34:52;;;;;;;5.95;1.65;;;;;;;13.84;59.31;100812.50;4759544;30;20035;-88
2022/11/06 11:37:25;;;;;;;5.32;1.50;;;;;;;13.91;60.25;100821.88;4756759;30;20045;-88
2022/11/06 11:39:50;;;;;;;5.00;1.50;;;;;;;13.83;59.88;100820.56;4785085;30;20042;-88
2022/11/06 11:42:22;;;;;;;3.85;1.52;;;;;;;13.61;59.58;100818.19;4772684;29;20110;-88
2022/11/06 11:45:11;;;;;;;4.20;1.50;;;;;;;13.64;60.29;100810.06;4775520;29;20485;-88
2022/11/06 11:47:39;;;;;;;5.63;1.50;;;;;;;13.58;60.42;100810.41;4762241;29;20528;-88
2022/11/06 11:50:16;;;;;;;3.38;1.27;;;;;;;13.70;60.63;100823.03;4755112;29;20031;-89
2022/11/06 11:52:48;;;;;;;4.95;1.20;;;;;;;13.61;59.43;100815.53;4761006;30;20036;-88
2022/11/06 11:55:16;;;;;;;5.22;1.55;;;;;;;13.56;59.03;100799.84;4762110;30;20084;-88
2022/11/06 11:57:44;;;;;;;6.28;1.50;;;;;;;13.52;60.25;100819.53;4764240;30;20039;-89